Terminal Aerodrome Forecast
Issued by NWS Rapid City, SD

Home | Current Version | Previous Version | Graphics & Text | Print | Product List | Glossary On
Versions: 1 2 3 4 5 6 7 8 9 10 11 12 13 14 15 16 17 18 19 20 21 22 23 24 25
000
FTUS43 KUNR 210311 AAA
TAFRAP
TAF AMD
KRAP 210311Z 2103/2124 08005KT P6SM SKC
     FM210600 17007KT P6SM SCT120 WS020/19050KT
     FM211500 19009KT P6SM SCT120=

USA.gov is the U.S. government's official web portal to all federal, state and local government web resources and services.